createdAt,value
2019-05-06T00:01:34.116Z,49.30
2019-05-06T00:04:04.661Z,49.70
2019-05-06T00:06:34.580Z,50.60
2019-05-06T00:09:05.041Z,50.70
2019-05-06T00:11:34.632Z,50.80
2019-05-06T00:14:04.069Z,50.70
2019-05-06T00:16:34.761Z,49.20
2019-05-06T00:19:04.855Z,49.00
2019-05-06T00:21:35.286Z,48.60
2019-05-06T00:24:03.940Z,48.80
2019-05-06T00:26:46.050Z,48.80
2019-05-06T00:29:16.126Z,48.70
2019-05-06T00:31:44.518Z,48.30
2019-05-06T00:34:13.898Z,48.60
2019-05-06T00:36:43.638Z,48.30
2019-05-06T00:39:24.342Z,48.50
2019-05-06T00:41:54.469Z,48.70
2019-05-06T00:44:23.881Z,48.40
2019-05-06T00:46:54.584Z,48.60
2019-05-06T00:49:23.848Z,48.50
2019-05-06T00:51:52.341Z,48.70
2019-05-06T00:54:24.761Z,48.50
2019-05-06T00:56:54.115Z,48.40
2019-05-06T00:59:23.883Z,48.60
2019-05-06T01:01:53.911Z,48.50
2019-05-06T01:04:24.392Z,48.50
2019-05-06T01:06:54.506Z,47.70
2019-05-06T01:09:23.780Z,47.70
2019-05-06T01:11:54.294Z,47.50
2019-05-06T01:14:24.358Z,47.70
2019-05-06T01:16:54.618Z,47.50
2019-05-06T01:19:23.545Z,47.60
2019-05-06T01:21:54.032Z,47.50
2019-05-06T01:24:23.831Z,47.50
2019-05-06T01:26:53.631Z,47.30
2019-05-06T01:29:24.127Z,47.20
2019-05-06T01:31:54.328Z,47.30
2019-05-06T01:34:24.531Z,47.50
2019-05-06T01:36:54.581Z,47.80
2019-05-06T01:39:40.832Z,47.40
2019-05-06T01:42:10.991Z,47.00
2019-05-06T01:44:39.500Z,47.50
2019-05-06T01:47:08.295Z,47.70
2019-05-06T01:49:36.693Z,48.10
2019-05-06T01:52:05.260Z,48.00
2019-05-06T01:54:34.358Z,48.10
2019-05-06T01:57:04.495Z,48.10
2019-05-06T01:59:34.052Z,48.10
2019-05-06T02:02:04.357Z,48.00
2019-05-06T02:04:33.773Z,48.00
2019-05-06T02:07:03.800Z,47.90
2019-05-06T02:09:34.297Z,47.90
2019-05-06T02:12:04.597Z,47.80
2019-05-06T02:14:34.095Z,47.80
2019-05-06T02:17:03.681Z,47.90
2019-05-06T02:19:34.551Z,47.90
2019-05-06T02:22:06.641Z,47.90
2019-05-06T02:24:36.695Z,47.80
2019-05-06T02:27:05.863Z,47.70
2019-05-06T02:29:35.997Z,47.50
2019-05-06T02:32:27.069Z,47.40
2019-05-06T02:35:10.919Z,47.20
2019-05-06T02:37:46.462Z,47.20
2019-05-06T02:40:25.568Z,47.40
2019-05-06T02:42:55.039Z,47.30
2019-05-06T02:45:24.379Z,47.60
2019-05-06T02:48:04.180Z,48.10
2019-05-06T02:50:44.822Z,47.30
2019-05-06T02:53:14.295Z,47.10
2019-05-06T02:55:43.130Z,47.00
2019-05-06T02:58:14.584Z,46.60
2019-05-06T03:00:42.967Z,46.40
2019-05-06T03:03:13.994Z,46.20
2019-05-06T03:05:43.960Z,45.90
2019-05-06T03:08:13.470Z,46.10
2019-05-06T03:10:44.092Z,46.40
2019-05-06T03:13:14.245Z,46.10
2019-05-06T03:15:43.400Z,46.40
2019-05-06T03:18:14.750Z,46.40
2019-05-06T03:20:58.240Z,46.30
2019-05-06T03:23:37.209Z,46.50
2019-05-06T03:26:07.183Z,46.40
2019-05-06T03:28:35.701Z,46.40
2019-05-06T03:31:06.665Z,46.20
2019-05-06T03:33:50.385Z,46.30
2019-05-06T03:36:14.897Z,46.20
2019-05-06T03:38:34.554Z,46.60
2019-05-06T03:41:03.317Z,45.80
2019-05-06T03:43:33.854Z,45.80
2019-05-06T03:46:15.869Z,45.70
2019-05-06T03:49:03.750Z,45.60
2019-05-06T03:51:34.190Z,45.80
2019-05-06T03:54:04.688Z,46.10
2019-05-06T03:56:34.079Z,47.00
2019-05-06T03:59:04.388Z,45.70
2019-05-06T04:01:33.630Z,45.80
2019-05-06T04:04:23.392Z,45.90
2019-05-06T04:06:53.814Z,45.60
2019-05-06T04:09:24.087Z,45.70
2019-05-06T04:11:54.084Z,45.60
2019-05-06T04:14:23.924Z,45.80
2019-05-06T04:16:54.149Z,45.70
2019-05-06T04:19:24.270Z,46.00
2019-05-06T04:22:03.519Z,45.90
2019-05-06T04:24:38.643Z,46.00
2019-05-06T04:27:23.734Z,46.10
2019-05-06T04:29:54.345Z,45.80
2019-05-06T04:32:23.539Z,45.90
2019-05-06T04:34:53.441Z,46.40
2019-05-06T04:37:24.237Z,46.70
2019-05-06T04:39:53.176Z,46.70
2019-05-06T04:42:26.319Z,46.90
2019-05-06T04:44:53.131Z,47.40
2019-05-06T04:47:24.164Z,47.50
2019-05-06T04:49:53.116Z,47.50
2019-05-06T04:52:22.798Z,46.10
2019-05-06T04:54:53.374Z,46.10
2019-05-06T04:57:23.743Z,46.00
2019-05-06T04:59:54.231Z,45.80
2019-05-06T05:02:23.096Z,45.60
2019-05-06T05:04:52.961Z,45.60
2019-05-06T05:07:22.508Z,45.40
2019-05-06T05:09:53.575Z,45.20
2019-05-06T05:12:23.879Z,45.10
2019-05-06T05:15:00.108Z,45.20
2019-05-06T05:17:42.004Z,44.60
2019-05-06T05:20:12.564Z,44.30
2019-05-06T05:22:42.363Z,44.50
2019-05-06T05:25:12.197Z,44.00
2019-05-06T05:27:42.168Z,43.70
2019-05-06T05:30:12.426Z,43.80
2019-05-06T05:32:42.812Z,43.70
2019-05-06T05:35:12.709Z,44.30
2019-05-06T05:37:41.966Z,43.40
2019-05-06T05:40:12.785Z,43.40
2019-05-06T05:42:58.789Z,42.90
2019-05-06T05:45:28.174Z,42.60
2019-05-06T05:47:58.277Z,42.30
2019-05-06T05:50:32.562Z,41.90
2019-05-06T05:53:02.528Z,41.20
2019-05-06T05:55:32.889Z,41.50
2019-05-06T05:58:03.201Z,41.20
2019-05-06T06:00:33.905Z,41.20
2019-05-06T06:03:02.899Z,40.90
2019-05-06T06:05:33.012Z,41.20
2019-05-06T06:08:02.906Z,40.70
2019-05-06T06:10:42.644Z,40.30
2019-05-06T06:13:12.736Z,40.60
2019-05-06T06:15:42.982Z,40.60
2019-05-06T06:18:30.456Z,40.70
2019-05-06T06:21:17.635Z,40.60
2019-05-06T06:23:41.992Z,40.50
2019-05-06T06:26:12.124Z,40.90
2019-05-06T06:28:42.542Z,40.70
2019-05-06T06:31:12.799Z,39.90
2019-05-06T06:33:42.756Z,40.40
2019-05-06T06:36:18.966Z,39.20
2019-05-06T06:39:02.118Z,38.60
2019-05-06T06:41:32.310Z,38.40
2019-05-06T06:44:02.798Z,37.60
2019-05-06T06:46:32.362Z,37.90
2019-05-06T06:49:03.082Z,37.10
2019-05-06T06:51:33.045Z,37.10
2019-05-06T06:54:02.508Z,35.50
2019-05-06T06:56:33.030Z,35.20
2019-05-06T06:59:12.887Z,34.60
2019-05-06T07:01:57.762Z,33.90
2019-05-06T07:04:37.791Z,33.20
2019-05-06T07:07:06.560Z,31.20
2019-05-06T07:09:34.982Z,31.00
2019-05-06T07:12:03.711Z,30.10
2019-05-06T07:14:33.326Z,29.10
2019-05-06T07:17:02.502Z,28.00
2019-05-06T07:19:52.743Z,27.80
2019-05-06T07:22:23.269Z,27.50
2019-05-06T07:24:52.725Z,26.00
2019-05-06T07:27:23.002Z,26.00
2019-05-06T07:29:52.310Z,25.70
2019-05-06T07:32:23.033Z,25.60
2019-05-06T07:34:53.088Z,26.60
2019-05-06T07:37:22.145Z,26.90
2019-05-06T07:39:52.949Z,25.60
2019-05-06T07:42:22.859Z,25.10
2019-05-06T07:44:55.684Z,24.80
2019-05-06T07:47:26.710Z,24.10
2019-05-06T07:49:55.588Z,24.10
2019-05-06T07:52:24.893Z,23.70
2019-05-06T07:54:53.520Z,21.60
2019-05-06T07:57:22.135Z,22.60
2019-05-06T07:59:52.502Z,23.40
2019-05-06T08:02:22.984Z,21.70
2019-05-06T08:04:53.191Z,21.40
2019-05-06T08:07:22.366Z,22.80
2019-05-06T08:09:52.843Z,24.30
2019-05-06T08:12:22.337Z,23.30
2019-05-06T08:14:52.424Z,22.50
2019-05-06T08:17:22.653Z,21.90
2019-05-06T08:19:52.914Z,19.60
2019-05-06T08:22:38.673Z,20.10
2019-05-06T08:25:07.185Z,17.70
2019-05-06T08:27:35.672Z,18.20
2019-05-06T08:30:08.103Z,17.00
2019-05-06T08:32:36.546Z,16.60
2019-05-06T08:35:06.297Z,17.40
2019-05-06T08:37:36.438Z,16.50
2019-05-06T08:40:06.308Z,15.60
2019-05-06T08:42:34.729Z,17.40
2019-05-06T08:45:03.294Z,17.90
2019-05-06T08:47:32.960Z,17.90
2019-05-06T08:50:06.096Z,17.60
2019-05-06T08:52:54.732Z,17.50
2019-05-06T08:55:27.787Z,16.60
2019-05-06T08:57:56.255Z,15.10
2019-05-06T09:00:24.851Z,14.80
2019-05-06T09:02:53.264Z,14.80
2019-05-06T09:05:22.240Z,14.60
2019-05-06T09:07:52.395Z,14.70
2019-05-06T09:10:22.746Z,15.60
2019-05-06T09:12:52.554Z,15.10
2019-05-06T09:15:21.986Z,15.60
2019-05-06T09:17:52.488Z,15.90
2019-05-06T09:20:20.681Z,14.50
2019-05-06T09:22:49.467Z,14.10
2019-05-06T09:25:17.934Z,14.40
2019-05-06T09:27:47.984Z,13.40
2019-05-06T09:30:19.661Z,13.90
2019-05-06T09:32:48.078Z,12.70
2019-05-06T09:35:16.558Z,13.20
2019-05-06T09:37:44.961Z,13.30
2019-05-06T09:40:14.826Z,13.50
2019-05-06T09:42:43.234Z,13.60
2019-05-06T09:45:13.278Z,12.90
2019-05-06T09:47:43.347Z,14.40
2019-05-06T09:50:14.458Z,15.90
2019-05-06T09:52:42.965Z,16.50
2019-05-06T09:55:22.552Z,16.60
2019-05-06T09:58:03.453Z,17.20
2019-05-06T10:00:34.424Z,18.00
2019-05-06T10:03:03.697Z,17.30
2019-05-06T10:05:32.576Z,17.70
2019-05-06T10:08:03.104Z,18.20
2019-05-06T10:10:32.810Z,18.50
2019-05-06T10:13:02.806Z,18.30
2019-05-06T10:15:32.616Z,18.40
2019-05-06T10:18:07.357Z,18.00
2019-05-06T10:20:37.378Z,16.60
2019-05-06T10:23:06.930Z,15.30
2019-05-06T10:25:35.491Z,15.30
2019-05-06T10:28:06.549Z,17.40
2019-05-06T10:30:35.201Z,17.40
2019-05-06T10:33:19.935Z,17.20
2019-05-06T10:35:48.373Z,17.10
2019-05-06T10:38:25.458Z,17.80
2019-05-06T10:41:03.873Z,18.80
2019-05-06T10:43:36.562Z,19.60
2019-05-06T10:46:05.313Z,20.00
2019-05-06T10:48:33.767Z,20.30
2019-05-06T10:51:06.526Z,20.40
2019-05-06T10:53:34.958Z,20.70
2019-05-06T10:56:23.073Z,20.60
2019-05-06T10:58:52.746Z,20.30
2019-05-06T11:01:28.813Z,20.50
2019-05-06T11:03:57.291Z,19.20
2019-05-06T11:06:25.715Z,19.80
2019-05-06T11:08:54.124Z,20.20
2019-05-06T11:11:32.635Z,20.10
2019-05-06T11:13:52.706Z,19.20
2019-05-06T11:16:23.674Z,18.90
2019-05-06T11:18:53.559Z,17.90
2019-05-06T11:21:22.586Z,18.20
2019-05-06T11:23:52.664Z,18.30
2019-05-06T11:26:23.550Z,17.90
2019-05-06T11:28:53.048Z,17.80
2019-05-06T11:31:39.549Z,17.70
2019-05-06T11:34:24.718Z,17.60
2019-05-06T11:37:12.058Z,16.90
2019-05-06T11:39:43.058Z,16.90
2019-05-06T11:42:25.070Z,16.90
2019-05-06T11:44:44.136Z,16.80
2019-05-06T11:47:12.467Z,16.70
2019-05-06T11:49:44.131Z,16.90
2019-05-06T11:52:13.046Z,16.60
2019-05-06T11:54:42.236Z,16.10
2019-05-06T11:57:12.456Z,16.20
2019-05-06T11:59:43.100Z,16.30
2019-05-06T12:02:12.823Z,16.20
2019-05-06T12:04:41.932Z,16.40
2019-05-06T12:07:11.703Z,16.80
2019-05-06T12:09:40.550Z,17.00
2019-05-06T12:12:08.998Z,16.90
2019-05-06T12:14:37.474Z,16.30
2019-05-06T12:17:05.914Z,16.50
2019-05-06T12:19:34.315Z,16.60
2019-05-06T12:22:02.758Z,16.10
2019-05-06T12:24:31.233Z,16.50
2019-05-06T12:26:59.657Z,16.20
2019-05-06T12:29:28.141Z,16.00
2019-05-06T12:31:58.233Z,15.60
2019-05-06T12:34:26.643Z,16.20
2019-05-06T12:36:56.705Z,16.70
2019-05-06T12:39:26.525Z,16.90
2019-05-06T12:41:56.602Z,16.60
2019-05-06T12:44:25.093Z,17.00
2019-05-06T12:46:55.234Z,17.20
2019-05-06T12:49:23.927Z,16.90
2019-05-06T12:51:53.807Z,17.40
2019-05-06T12:54:22.463Z,18.00
2019-05-06T12:56:53.959Z,18.50
2019-05-06T12:59:22.706Z,18.20
2019-05-06T13:01:53.829Z,18.00
2019-05-06T13:04:44.387Z,18.50
2019-05-06T13:06:52.194Z,18.40
2019-05-06T13:09:22.507Z,18.50
2019-05-06T13:11:52.393Z,18.60
2019-05-06T13:14:22.382Z,20.00
2019-05-06T13:16:53.383Z,22.50
2019-05-06T13:19:22.883Z,23.80
2019-05-06T13:21:51.687Z,25.40
2019-05-06T13:24:20.175Z,24.90
2019-05-06T13:26:48.786Z,25.50
2019-05-06T13:29:22.713Z,26.30
2019-05-06T13:31:53.042Z,25.70
2019-05-06T13:34:23.490Z,24.80
2019-05-06T13:36:53.341Z,24.50
2019-05-06T13:39:23.724Z,25.40
2019-05-06T13:41:52.924Z,26.00
2019-05-06T13:44:22.733Z,26.10
2019-05-06T13:46:53.271Z,24.90
2019-05-06T13:49:23.766Z,25.50
2019-05-06T13:52:03.421Z,24.70
2019-05-06T13:54:29.773Z,23.30
2019-05-06T13:56:58.275Z,22.70
2019-05-06T13:59:30.238Z,23.20
2019-05-06T14:02:06.555Z,23.00
2019-05-06T14:04:32.676Z,22.10
2019-05-06T14:07:02.504Z,22.30
2019-05-06T14:09:37.255Z,23.30
2019-05-06T14:12:02.567Z,23.10
2019-05-06T14:14:32.275Z,22.40
2019-05-06T14:17:00.858Z,21.90
2019-05-06T14:19:29.281Z,21.60
2019-05-06T14:21:57.711Z,20.00
2019-05-06T14:24:26.374Z,20.20
2019-05-06T14:26:58.914Z,20.50
2019-05-06T14:29:37.387Z,20.80
2019-05-06T14:32:06.567Z,21.20
2019-05-06T14:34:35.009Z,21.40
2019-05-06T14:37:03.839Z,22.50
2019-05-06T14:39:55.538Z,21.60
2019-05-06T14:42:19.041Z,21.60
2019-05-06T14:44:47.473Z,21.80
2019-05-06T14:47:17.561Z,22.00
2019-05-06T14:49:46.073Z,22.50
2019-05-06T14:52:14.648Z,23.30
2019-05-06T14:54:52.946Z,23.70
2019-05-06T14:57:22.772Z,23.70
2019-05-06T14:59:55.168Z,23.50
2019-05-06T15:02:26.027Z,23.10
2019-05-06T15:04:53.796Z,22.90
2019-05-06T15:07:22.260Z,22.70
2019-05-06T15:10:07.937Z,23.30
2019-05-06T15:12:22.918Z,23.40
2019-05-06T15:14:52.696Z,23.70
2019-05-06T15:17:22.975Z,24.00
2019-05-06T15:19:52.620Z,24.30
2019-05-06T15:22:22.645Z,25.00
2019-05-06T15:24:53.627Z,29.10
2019-05-06T15:27:22.801Z,31.80
2019-05-06T15:29:54.646Z,34.10
2019-05-06T15:32:30.510Z,36.50
2019-05-06T15:35:09.388Z,37.50
2019-05-06T15:37:42.651Z,38.50
2019-05-06T15:40:12.234Z,39.20
2019-05-06T15:42:42.523Z,38.80
2019-05-06T15:45:12.657Z,39.10
2019-05-06T15:47:42.583Z,39.30
2019-05-06T15:50:12.730Z,40.20
2019-05-06T15:52:43.559Z,40.70
2019-05-06T15:55:11.914Z,40.00
2019-05-06T15:57:40.310Z,39.80
2019-05-06T16:00:09.788Z,40.80
2019-05-06T16:02:38.215Z,40.20
2019-05-06T16:05:13.793Z,40.90
2019-05-06T16:07:37.965Z,39.90
2019-05-06T16:10:08.309Z,40.00
2019-05-06T16:12:36.722Z,40.40
2019-05-06T16:15:09.030Z,40.30
2019-05-06T16:17:37.497Z,40.60
2019-05-06T16:20:06.957Z,39.00
2019-05-06T16:22:35.408Z,38.90
2019-05-06T16:25:09.273Z,38.80
2019-05-06T16:27:37.690Z,38.40
2019-05-06T16:30:08.566Z,37.70
2019-05-06T16:32:36.985Z,37.90
2019-05-06T16:35:06.242Z,37.50
2019-05-06T16:37:34.730Z,37.50
2019-05-06T16:40:03.250Z,37.40
2019-05-06T16:42:32.101Z,37.30
2019-05-06T16:45:06.498Z,37.00
2019-05-06T16:47:37.167Z,36.40
2019-05-06T16:50:18.789Z,36.10
2019-05-06T16:52:47.215Z,36.00
2019-05-06T16:55:19.189Z,35.00
2019-05-06T16:57:49.378Z,35.30
2019-05-06T17:00:19.590Z,35.10
2019-05-06T17:02:57.846Z,33.80
2019-05-06T17:05:39.122Z,34.00
2019-05-06T17:08:07.610Z,34.30
2019-05-06T17:10:36.041Z,33.30
2019-05-06T17:13:04.532Z,34.90
2019-05-06T17:15:32.983Z,35.10
2019-05-06T17:18:03.121Z,35.00
2019-05-06T17:20:32.681Z,34.50
2019-05-06T17:23:02.944Z,34.40
2019-05-06T17:25:33.465Z,34.30
2019-05-06T17:28:03.494Z,34.40
2019-05-06T17:30:39.676Z,34.90
2019-05-06T17:33:12.846Z,35.40
2019-05-06T17:35:42.860Z,34.80
2019-05-06T17:38:12.966Z,34.80
2019-05-06T17:40:42.905Z,35.30
2019-05-06T17:43:13.029Z,35.60
2019-05-06T17:45:58.255Z,34.50
2019-05-06T17:48:29.961Z,34.70
2019-05-06T17:51:15.954Z,34.90
2019-05-06T17:53:52.391Z,34.30
2019-05-06T17:56:22.254Z,33.90
2019-05-06T17:58:52.966Z,34.70
2019-05-06T18:01:33.066Z,34.70
2019-05-06T18:04:02.200Z,35.10
2019-05-06T18:06:32.633Z,34.50
2019-05-06T18:09:02.538Z,34.40
2019-05-06T18:11:33.181Z,33.50
2019-05-06T18:14:03.771Z,33.90
2019-05-06T18:16:33.508Z,34.60
2019-05-06T18:19:03.099Z,34.10
2019-05-06T18:21:31.863Z,34.70
2019-05-06T18:24:00.273Z,35.00
2019-05-06T18:26:28.684Z,35.60
2019-05-06T18:28:58.514Z,36.30
2019-05-06T18:31:27.206Z,36.50
2019-05-06T18:33:55.622Z,36.70
2019-05-06T18:36:24.270Z,37.00
2019-05-06T18:38:52.807Z,37.30
2019-05-06T18:41:23.557Z,36.80
2019-05-06T18:43:53.494Z,37.10
2019-05-06T18:46:22.217Z,37.20
2019-05-06T18:48:52.415Z,37.30
2019-05-06T18:51:22.321Z,37.10
2019-05-06T18:53:52.598Z,37.10
2019-05-06T18:56:22.463Z,37.20
2019-05-06T18:58:52.954Z,37.90
2019-05-06T19:01:23.262Z,38.30
2019-05-06T19:03:59.133Z,39.40
2019-05-06T19:06:28.066Z,39.00
2019-05-06T19:09:02.601Z,39.30
2019-05-06T19:11:32.516Z,40.10
2019-05-06T19:14:02.127Z,41.20
2019-05-06T19:16:45.577Z,40.20
2019-05-06T19:19:03.678Z,40.00
2019-05-06T19:21:31.941Z,40.00
2019-05-06T19:24:02.796Z,39.90
2019-05-06T19:26:32.669Z,40.00
2019-05-06T19:29:04.372Z,39.80
2019-05-06T19:31:32.252Z,40.40
2019-05-06T19:34:03.179Z,40.40
2019-05-06T19:36:34.573Z,40.80
2019-05-06T19:39:02.300Z,41.10
2019-05-06T19:41:33.188Z,41.50
2019-05-06T19:44:02.227Z,41.90
2019-05-06T19:46:32.561Z,42.10
2019-05-06T19:49:01.819Z,42.00
2019-05-06T19:51:32.841Z,42.40
2019-05-06T19:54:02.228Z,43.10
2019-05-06T19:56:30.817Z,43.20
2019-05-06T19:59:01.966Z,43.10
2019-05-06T20:01:32.178Z,43.20
2019-05-06T20:04:02.301Z,43.70
2019-05-06T20:06:35.234Z,43.70
2019-05-06T20:09:24.761Z,43.60
2019-05-06T20:11:57.587Z,43.60
2019-05-06T20:14:26.794Z,43.40
2019-05-06T20:16:55.404Z,43.30
2019-05-06T20:19:30.820Z,43.50
2019-05-06T20:21:54.301Z,43.70
2019-05-06T20:24:22.746Z,43.50
2019-05-06T20:26:54.800Z,43.60
2019-05-06T20:29:26.608Z,43.50
2019-05-06T20:31:55.292Z,43.30
2019-05-06T20:34:23.773Z,44.00
2019-05-06T20:36:59.191Z,44.00
2019-05-06T20:39:32.469Z,43.80
2019-05-06T20:42:02.858Z,44.00
2019-05-06T20:44:40.098Z,43.80
2019-05-06T20:47:10.049Z,43.70
2019-05-06T20:49:38.539Z,44.20
2019-05-06T20:52:08.999Z,44.80
2019-05-06T20:54:39.080Z,44.00
2019-05-06T20:57:09.086Z,44.10
2019-05-06T20:59:37.642Z,43.80
2019-05-06T21:02:06.094Z,43.50
2019-05-06T21:04:49.338Z,43.80
2019-05-06T21:07:17.848Z,44.00
2019-05-06T21:09:46.649Z,44.10
2019-05-06T21:12:15.074Z,43.70
2019-05-06T21:14:43.558Z,43.70
2019-05-06T21:17:12.716Z,43.80
2019-05-06T21:19:41.225Z,43.90
2019-05-06T21:22:09.695Z,43.70
2019-05-06T21:24:38.400Z,44.10
2019-05-06T21:27:06.809Z,43.90
2019-05-06T21:29:35.255Z,44.30
2019-05-06T21:32:03.791Z,44.20
2019-05-06T21:34:32.859Z,44.50
2019-05-06T21:37:02.948Z,44.30
2019-05-06T21:39:32.787Z,44.40
2019-05-06T21:42:01.539Z,44.50
2019-05-06T21:44:32.270Z,44.60
2019-05-06T21:47:14.335Z,44.60
2019-05-06T21:49:32.478Z,45.20
2019-05-06T21:52:02.080Z,45.40
2019-05-06T21:54:32.712Z,45.70
2019-05-06T21:57:02.993Z,45.60
2019-05-06T21:59:31.415Z,45.70
2019-05-06T22:01:59.900Z,45.60
2019-05-06T22:04:28.723Z,45.80
2019-05-06T22:06:57.442Z,46.00
2019-05-06T22:09:26.018Z,46.00
2019-05-06T22:11:54.601Z,46.60
2019-05-06T22:14:23.200Z,46.20
2019-05-06T22:16:51.870Z,46.40
2019-05-06T22:19:26.165Z,46.60
2019-05-06T22:22:08.666Z,46.20
2019-05-06T22:24:47.156Z,46.30
2019-05-06T22:27:16.692Z,46.60
2019-05-06T22:29:45.267Z,46.90
2019-05-06T22:32:15.120Z,46.90
2019-05-06T22:34:43.958Z,47.40
2019-05-06T22:37:16.194Z,47.30
2019-05-06T22:39:47.690Z,47.80
2019-05-06T22:42:16.390Z,48.20
2019-05-06T22:44:47.990Z,48.50
2019-05-06T22:47:18.777Z,49.70
2019-05-06T22:49:54.069Z,49.90
2019-05-06T22:52:26.943Z,49.90
2019-05-06T22:54:53.326Z,50.40
2019-05-06T22:57:23.543Z,50.90
2019-05-06T22:59:52.690Z,51.20
2019-05-06T23:02:28.793Z,52.00
2019-05-06T23:04:58.947Z,52.30
2019-05-06T23:07:28.983Z,52.50
2019-05-06T23:09:57.453Z,52.70
2019-05-06T23:12:25.921Z,52.90
2019-05-06T23:14:54.318Z,52.80
2019-05-06T23:17:22.733Z,53.30
2019-05-06T23:19:52.802Z,53.80
2019-05-06T23:22:22.745Z,54.20
2019-05-06T23:24:53.850Z,54.30
2019-05-06T23:27:23.244Z,54.50
2019-05-06T23:29:52.602Z,54.80
2019-05-06T23:32:22.869Z,55.30
2019-05-06T23:34:52.356Z,55.70
2019-05-06T23:37:22.526Z,56.00
2019-05-06T23:40:28.675Z,56.20
2019-05-06T23:43:33.485Z,56.20
2019-05-06T23:46:38.344Z,56.20
2019-05-06T23:49:43.818Z,56.60
2019-05-06T23:52:48.732Z,56.50
2019-05-06T23:55:53.377Z,57.10
2019-05-06T23:58:22.478Z,57.10
